Aérodrome :
LOGIN :

S'inscrire | Disclaimer

   EN    FR    IT 

 










Légende :    VFR   VFR Marginal   IFR   IFR Intensif   IFR Très Intensif
Visi : 
Plafond : 
>= 8 km
>= 3000ft
5 à 8 km
1000 à 3000 ft
1500m à 5 km
500 à 1000 ft
800 à 1500m
200 à 500 ft
< 800m
< 200 ft
Symboles :   Orages  Brouillard  Fortes neiges  Fortes précipitations  Vent > 20 kt
SIGMETs :   Divers  Orages  Givrage  Turbulence  Onde Orograph.  Cendres Volcan.







- Altitude de l'aérodrome : 124 ft
- Code IATA : NHT
- Voir les cartes d'approche


EGWU - RAF Northolt

DERNIER METAR :
  • 230150Z AUTO 25003KT 9000 // BKN027/// 08/07 Q1028

METARs EXPIRÉS :
  • 230050Z AUTO 21002KT 9000 // BKN031/// 08/06 Q1028
  • 222350Z AUTO 24003KT 9999 // NCD 08/06 Q1028

TAF TAF EGWU
Valide du 22 à 18h jusqu'au 23 à 12h UTC


221625Z 2218/2312 28005KT 9999 BKN018
TEMPO 2219/2224 FEW020 SCT030
PROB30 2221/2302 7000 BR
TEMPO 2301/2304 SCT012
BECMG 2304/2307 BKN035
Pas de NOTAMs connus pour ce terrain.



MET'MAP, la Météo Aéronautique d'un coup d'oeil ! - Copyright ORBIFLY Décembre 2007 - Disclaimer

ORBIFLY MET'MAP TEAM :

Programmation & Développement : Alexandra Zaïnal
Conception & Développement : Baudouin d'Aumeries
Co-Programmation & Développement : Marc-Olivier Méhu
Soutien technique & logistique : Manuel Goepfert

Contact : metmap@orbifly.com




SOURCES & CREDITS :

   NOAA